createdAt,value
2022-12-03T00:01:36.046Z,5.52
2022-12-03T00:04:04.308Z,5.09
2022-12-03T00:06:34.687Z,4.72
2022-12-03T00:09:04.612Z,5.23
2022-12-03T00:11:32.867Z,8.34
2022-12-03T00:14:01.020Z,9.33
2022-12-03T00:16:29.108Z,8.02
2022-12-03T00:18:57.182Z,6.85
2022-12-03T00:21:25.354Z,6.04
2022-12-03T00:23:53.457Z,5.49
2022-12-03T00:26:21.584Z,5.07
2022-12-03T00:28:49.776Z,4.71
2022-12-03T00:31:18.063Z,5.16
2022-12-03T00:33:46.165Z,8.20
2022-12-03T00:36:14.211Z,9.38
2022-12-03T00:38:42.326Z,8.11
2022-12-03T00:41:10.358Z,6.91
2022-12-03T00:43:38.430Z,6.09
2022-12-03T00:46:06.553Z,5.52
2022-12-03T00:48:34.677Z,5.10
2022-12-03T00:51:02.846Z,4.75
2022-12-03T00:53:30.903Z,5.27
2022-12-03T00:55:59.141Z,8.38
2022-12-03T00:58:27.186Z,9.44
2022-12-03T01:00:55.235Z,8.12
2022-12-03T01:03:23.256Z,6.94
2022-12-03T01:05:51.351Z,6.13
2022-12-03T01:08:19.496Z,5.56
2022-12-03T01:10:47.497Z,5.14
2022-12-03T01:13:15.541Z,4.78
2022-12-03T01:15:43.749Z,5.34
2022-12-03T01:18:11.836Z,8.41
2022-12-03T01:20:39.956Z,9.39
2022-12-03T01:23:08.060Z,8.09
2022-12-03T01:25:36.074Z,6.93
2022-12-03T01:28:04.169Z,6.15
2022-12-03T01:30:52.200Z,5.57
2022-12-03T01:33:20.283Z,5.09
2022-12-03T01:35:48.310Z,5.36
2022-12-03T01:38:16.324Z,8.23
2022-12-03T01:40:44.420Z,9.53
2022-12-03T01:43:12.420Z,8.32
2022-12-03T01:45:40.570Z,7.13
2022-12-03T01:48:13.804Z,6.33
2022-12-03T01:50:42.841Z,5.70
2022-12-03T01:53:15.726Z,5.25
2022-12-03T01:55:48.445Z,4.89
2022-12-03T01:58:20.379Z,5.79
2022-12-03T02:00:48.400Z,8.91
2022-12-03T02:03:23.492Z,9.33
2022-12-03T02:05:52.671Z,7.92
2022-12-03T02:08:31.023Z,6.84
2022-12-03T02:11:03.361Z,6.06
2022-12-03T02:13:32.253Z,5.52
2022-12-03T02:16:00.458Z,5.12
2022-12-03T02:18:28.599Z,5.39
2022-12-03T02:21:06.882Z,8.29
2022-12-03T02:23:45.754Z,9.56
2022-12-03T02:26:13.803Z,8.17
2022-12-03T02:28:42.116Z,7.04
2022-12-03T02:31:10.308Z,6.25
2022-12-03T02:33:38.824Z,5.70
2022-12-03T02:36:07.214Z,5.26
2022-12-03T02:38:36.411Z,5.55
2022-12-03T02:41:09.766Z,8.50
2022-12-03T02:43:38.997Z,9.69
2022-12-03T02:46:08.171Z,8.40
2022-12-03T02:48:38.909Z,7.20
2022-12-03T02:51:11.272Z,6.37
2022-12-03T02:53:44.813Z,5.77
2022-12-03T02:56:16.208Z,5.32
2022-12-03T02:58:47.128Z,5.69
2022-12-03T03:01:16.912Z,8.78
2022-12-03T03:03:47.432Z,9.61
2022-12-03T03:06:17.332Z,8.23
2022-12-03T03:08:45.686Z,7.07
2022-12-03T03:11:13.826Z,6.28
2022-12-03T03:13:42.206Z,5.70
2022-12-03T03:16:10.691Z,5.27
2022-12-03T03:18:39.859Z,5.74
2022-12-03T03:21:08.264Z,8.82
2022-12-03T03:23:36.418Z,9.76
2022-12-03T03:26:12.060Z,8.44
2022-12-03T03:28:48.830Z,7.22
2022-12-03T03:31:21.464Z,6.39
2022-12-03T03:33:50.399Z,5.82
2022-12-03T03:36:20.271Z,5.38
2022-12-03T03:38:49.035Z,5.74
2022-12-03T03:41:18.494Z,8.57
2022-12-03T03:43:48.522Z,9.69
2022-12-03T03:46:17.903Z,8.44
2022-12-03T03:48:48.726Z,7.27
2022-12-03T03:51:18.004Z,6.47
2022-12-03T03:53:49.097Z,5.88
2022-12-03T03:56:19.528Z,5.44
2022-12-03T03:58:47.717Z,5.75
2022-12-03T04:01:17.144Z,8.67
2022-12-03T04:03:45.363Z,9.78
2022-12-03T04:06:13.416Z,8.52
2022-12-03T04:08:41.451Z,7.35
2022-12-03T04:11:28.222Z,6.55
2022-12-03T04:13:56.272Z,5.91
2022-12-03T04:16:24.355Z,5.48
2022-12-03T04:18:52.421Z,5.80
2022-12-03T04:21:41.791Z,8.67
2022-12-03T04:24:11.728Z,9.66
2022-12-03T04:26:58.451Z,8.31
2022-12-03T04:29:26.462Z,7.10
2022-12-03T04:32:13.092Z,6.37
2022-12-03T04:34:59.923Z,5.78
2022-12-03T04:37:27.985Z,5.32
2022-12-03T04:39:56.116Z,5.87
2022-12-03T04:42:24.166Z,8.80
2022-12-03T04:44:52.531Z,9.82
2022-12-03T04:47:22.027Z,8.52
2022-12-03T04:49:51.839Z,7.35
2022-12-03T04:52:21.330Z,6.55
2022-12-03T04:54:49.410Z,5.98
2022-12-03T04:57:17.577Z,5.55
2022-12-03T04:59:45.861Z,5.76
2022-12-03T05:02:14.004Z,8.49
2022-12-03T05:04:43.424Z,9.89
2022-12-03T05:07:11.835Z,8.70
2022-12-03T05:09:39.919Z,7.50
2022-12-03T05:12:07.976Z,6.68
2022-12-03T05:14:36.731Z,6.07
2022-12-03T05:17:04.915Z,5.61
2022-12-03T05:19:51.735Z,5.23
2022-12-03T05:22:19.845Z,6.14
2022-12-03T05:24:47.865Z,9.17
2022-12-03T05:27:20.216Z,9.66
2022-12-03T05:29:52.055Z,8.25
2022-12-03T05:32:20.480Z,7.16
2022-12-03T05:34:48.550Z,6.41
2022-12-03T05:37:16.688Z,5.86
2022-12-03T05:39:44.727Z,5.44
2022-12-03T05:42:31.439Z,5.85
2022-12-03T05:44:59.477Z,9.03
2022-12-03T05:47:27.514Z,9.69
2022-12-03T05:49:55.610Z,8.38
2022-12-03T05:52:23.662Z,7.27
2022-12-03T05:54:51.989Z,6.52
2022-12-03T05:57:20.576Z,5.96
2022-12-03T05:59:48.615Z,5.52
2022-12-03T06:02:16.709Z,5.74
2022-12-03T06:04:44.855Z,8.56
2022-12-03T06:07:14.290Z,9.93
2022-12-03T06:09:42.571Z,8.70
2022-12-03T06:12:10.604Z,7.49
2022-12-03T06:14:38.701Z,6.64
2022-12-03T06:17:06.852Z,6.05
2022-12-03T06:19:35.012Z,5.60
2022-12-03T06:22:03.144Z,5.24
2022-12-03T06:24:31.193Z,6.36
2022-12-03T06:26:59.259Z,9.24
2022-12-03T06:29:27.298Z,9.48
2022-12-03T06:31:55.454Z,8.14
2022-12-03T06:34:23.494Z,7.08
2022-12-03T06:36:51.527Z,6.35
2022-12-03T06:39:19.684Z,5.81
2022-12-03T06:41:47.715Z,5.39
2022-12-03T06:44:15.782Z,5.82
2022-12-03T06:46:43.916Z,8.75
2022-12-03T06:49:11.949Z,9.80
2022-12-03T06:51:40.093Z,8.53
2022-12-03T06:54:08.171Z,7.37
2022-12-03T06:56:41.885Z,6.54
2022-12-03T06:59:14.026Z,5.94
2022-12-03T07:01:42.344Z,5.50
2022-12-03T07:04:10.489Z,5.81
2022-12-03T07:06:38.603Z,8.69
2022-12-03T07:09:06.691Z,9.81
2022-12-03T07:11:40.567Z,8.56
2022-12-03T07:14:11.636Z,7.35
2022-12-03T07:16:40.658Z,6.52
2022-12-03T07:19:09.817Z,5.93
2022-12-03T07:21:38.269Z,5.48
2022-12-03T07:24:06.885Z,5.76
2022-12-03T07:26:35.019Z,8.70
2022-12-03T07:29:03.233Z,9.94
2022-12-03T07:31:31.430Z,8.66
2022-12-03T07:33:59.652Z,7.43
2022-12-03T07:36:27.669Z,6.57
2022-12-03T07:38:55.934Z,5.98
2022-12-03T07:41:23.959Z,5.53
2022-12-03T07:43:52.009Z,5.86
2022-12-03T07:46:20.113Z,8.77
2022-12-03T07:48:48.273Z,9.99
2022-12-03T07:51:16.438Z,8.75
2022-12-03T07:53:44.453Z,7.58
2022-12-03T07:56:12.548Z,6.76
2022-12-03T07:58:40.658Z,6.16
2022-12-03T08:01:08.843Z,5.72
2022-12-03T08:03:37.006Z,6.03
2022-12-03T08:06:05.223Z,8.88
2022-12-03T08:08:33.273Z,9.94
2022-12-03T08:11:02.322Z,8.69
2022-12-03T08:13:30.874Z,7.52
2022-12-03T08:16:09.142Z,6.68
2022-12-03T08:18:37.328Z,6.07
2022-12-03T08:21:06.858Z,5.64
2022-12-03T08:23:34.910Z,6.02
2022-12-03T08:26:27.598Z,8.89
2022-12-03T08:28:55.715Z,9.82
2022-12-03T08:31:32.765Z,8.52
2022-12-03T08:34:23.737Z,7.35
2022-12-03T08:36:58.060Z,6.48
2022-12-03T08:39:30.515Z,5.93
2022-12-03T08:42:28.146Z,5.49
2022-12-03T08:44:57.237Z,6.56
2022-12-03T08:47:25.509Z,9.61
2022-12-03T08:50:03.348Z,9.91
2022-12-03T08:52:33.877Z,8.47
2022-12-03T08:55:38.221Z,7.39
2022-12-03T08:58:32.255Z,6.54
2022-12-03T09:01:05.930Z,5.93
2022-12-03T09:03:34.636Z,5.50
2022-12-03T09:06:02.811Z,6.05
2022-12-03T09:08:31.723Z,9.09
2022-12-03T09:10:59.796Z,10.18
2022-12-03T09:13:27.812Z,8.91
2022-12-03T09:15:55.965Z,7.76
2022-12-03T09:18:24.093Z,6.99
2022-12-03T09:20:52.112Z,6.43
2022-12-03T09:23:20.158Z,5.98
2022-12-03T09:25:48.174Z,5.59
2022-12-03T09:28:16.170Z,6.48
2022-12-03T09:30:44.216Z,9.61
2022-12-03T09:33:12.364Z,10.22
2022-12-03T09:35:40.407Z,8.90
2022-12-03T09:38:08.448Z,7.76
2022-12-03T09:40:36.524Z,6.93
2022-12-03T09:43:05.271Z,6.32
2022-12-03T09:45:33.465Z,5.83
2022-12-03T09:48:04.136Z,6.16
2022-12-03T09:50:32.722Z,9.05
2022-12-03T09:53:03.971Z,10.19
2022-12-03T09:55:32.644Z,8.94
2022-12-03T09:58:00.937Z,7.80
2022-12-03T10:00:30.498Z,7.04
2022-12-03T10:03:03.143Z,6.46
2022-12-03T10:05:31.214Z,6.00
2022-12-03T10:08:06.918Z,5.67
2022-12-03T10:10:36.557Z,7.07
2022-12-03T10:13:06.177Z,9.87
2022-12-03T10:15:34.418Z,9.71
2022-12-03T10:18:21.798Z,8.40
2022-12-03T10:20:51.500Z,7.28
2022-12-03T10:23:24.069Z,6.60
2022-12-03T10:25:58.282Z,6.09
2022-12-03T10:28:37.007Z,6.36
2022-12-03T10:31:07.723Z,9.29
2022-12-03T10:33:44.994Z,10.19
2022-12-03T10:36:19.564Z,8.88
2022-12-03T10:39:12.985Z,7.77
2022-12-03T10:41:42.890Z,6.96
2022-12-03T10:44:22.497Z,6.44
2022-12-03T10:47:16.049Z,6.04
2022-12-03T10:49:44.298Z,6.89
2022-12-03T10:52:26.059Z,9.89
2022-12-03T10:54:54.524Z,10.27
2022-12-03T10:57:23.630Z,8.95
2022-12-03T10:59:51.789Z,7.91
2022-12-03T11:02:22.815Z,7.22
2022-12-03T11:04:51.931Z,6.73
2022-12-03T11:07:22.294Z,6.35
2022-12-03T11:09:52.606Z,6.88
2022-12-03T11:12:26.364Z,9.97
2022-12-03T11:14:55.125Z,10.79
2022-12-03T11:17:41.624Z,9.52
2022-12-03T11:20:32.386Z,8.33
2022-12-03T11:23:00.485Z,7.53
2022-12-03T11:25:28.553Z,7.05
2022-12-03T11:28:11.941Z,6.67
2022-12-03T11:30:48.925Z,6.29
2022-12-03T11:33:27.040Z,6.99
2022-12-03T11:36:04.330Z,10.15
2022-12-03T11:38:52.243Z,11.07
2022-12-03T11:41:28.919Z,9.66
2022-12-03T11:44:04.275Z,8.60
2022-12-03T11:46:43.807Z,7.91
2022-12-03T11:49:35.737Z,7.41
2022-12-03T11:52:20.261Z,7.01
2022-12-03T11:54:53.214Z,6.72
2022-12-03T11:57:31.010Z,7.43
2022-12-03T12:00:21.202Z,10.63
2022-12-03T12:02:50.826Z,11.32
2022-12-03T12:05:29.559Z,10.03
2022-12-03T12:07:57.803Z,8.96
2022-12-03T12:10:39.225Z,8.29
2022-12-03T12:13:24.881Z,7.79
2022-12-03T12:15:53.269Z,7.40
2022-12-03T12:18:43.638Z,7.13
2022-12-03T12:21:42.016Z,6.85
2022-12-03T12:24:29.195Z,7.88
2022-12-03T12:27:00.171Z,11.14
2022-12-03T12:29:28.570Z,11.27
2022-12-03T12:32:17.495Z,10.02
2022-12-03T12:34:51.297Z,8.96
2022-12-03T12:37:36.454Z,8.32
2022-12-03T12:40:12.954Z,7.86
2022-12-03T12:42:50.367Z,7.50
2022-12-03T12:45:30.370Z,7.20
2022-12-03T12:48:07.290Z,6.94
2022-12-03T12:50:37.334Z,7.46
2022-12-03T12:53:26.163Z,10.35
2022-12-03T12:56:07.142Z,11.59
2022-12-03T12:58:36.168Z,10.28
2022-12-03T13:01:08.067Z,9.25
2022-12-03T13:03:39.867Z,8.53
2022-12-03T13:06:15.157Z,8.02
2022-12-03T13:08:46.024Z,7.61
2022-12-03T13:11:39.683Z,7.29
2022-12-03T13:14:16.331Z,6.96
2022-12-03T13:16:45.271Z,6.70
2022-12-03T13:19:21.767Z,7.35
2022-12-03T13:21:51.979Z,10.58
2022-12-03T13:24:41.512Z,11.58
2022-12-03T13:27:19.749Z,10.17
2022-12-03T13:30:09.926Z,9.06
2022-12-03T13:32:38.541Z,8.20
2022-12-03T13:35:31.153Z,7.66
2022-12-03T13:37:59.567Z,7.20
2022-12-03T13:40:30.883Z,6.87
2022-12-03T13:42:59.594Z,7.32
2022-12-03T13:45:40.507Z,10.29
2022-12-03T13:48:17.728Z,11.40
2022-12-03T13:50:46.336Z,10.04
2022-12-03T13:53:23.393Z,8.92
2022-12-03T13:55:59.198Z,8.10
2022-12-03T13:58:27.261Z,7.53
2022-12-03T14:00:55.680Z,7.11
2022-12-03T14:03:23.718Z,6.76
2022-12-03T14:05:51.725Z,7.37
2022-12-03T14:08:19.853Z,10.42
2022-12-03T14:10:47.976Z,11.22
2022-12-03T14:13:15.980Z,9.86
2022-12-03T14:15:44.143Z,8.62
2022-12-03T14:18:12.174Z,7.72
2022-12-03T14:20:40.198Z,7.05
2022-12-03T14:23:08.259Z,6.51
2022-12-03T14:25:36.322Z,6.80
2022-12-03T14:28:08.776Z,9.64
2022-12-03T14:30:37.283Z,11.02
2022-12-03T14:33:05.342Z,9.75
2022-12-03T14:35:33.343Z,8.46
2022-12-03T14:38:01.353Z,7.53
2022-12-03T14:40:29.362Z,6.84
2022-12-03T14:42:57.424Z,6.31
2022-12-03T14:45:27.779Z,6.72
2022-12-03T14:47:56.253Z,9.68
2022-12-03T14:50:26.943Z,10.71
2022-12-03T14:52:55.070Z,9.45
2022-12-03T14:55:23.276Z,8.29
2022-12-03T14:57:51.421Z,7.50
2022-12-03T15:00:20.392Z,6.93
2022-12-03T15:02:48.475Z,6.49
2022-12-03T15:05:16.744Z,6.11
2022-12-03T15:07:45.150Z,6.45
2022-12-03T15:10:13.265Z,9.34
2022-12-03T15:12:41.295Z,10.41
2022-12-03T15:15:10.460Z,9.19
2022-12-03T15:17:38.610Z,8.03
2022-12-03T15:20:07.637Z,7.24
2022-12-03T15:22:35.655Z,6.69
2022-12-03T15:25:04.163Z,6.25
2022-12-03T15:27:32.218Z,5.88
2022-12-03T15:30:00.334Z,6.41
2022-12-03T15:32:28.474Z,9.38
2022-12-03T15:34:56.549Z,10.13
2022-12-03T15:37:27.765Z,8.86
2022-12-03T15:39:56.240Z,7.73
2022-12-03T15:42:24.640Z,6.98
2022-12-03T15:44:52.692Z,6.44
2022-12-03T15:47:20.777Z,6.01
2022-12-03T15:49:49.048Z,6.27
2022-12-03T15:52:17.179Z,9.16
2022-12-03T15:54:46.225Z,10.25
2022-12-03T15:57:14.269Z,9.01
2022-12-03T15:59:43.300Z,7.86
2022-12-03T16:02:11.476Z,7.08
2022-12-03T16:04:39.814Z,6.53
2022-12-03T16:07:07.931Z,6.08
2022-12-03T16:09:36.105Z,5.72
2022-12-03T16:12:04.364Z,6.80
2022-12-03T16:14:32.623Z,9.85
2022-12-03T16:17:01.213Z,10.04
2022-12-03T16:19:29.209Z,8.69
2022-12-03T16:21:57.388Z,7.64
2022-12-03T16:24:25.446Z,6.92
2022-12-03T16:26:53.580Z,6.39
2022-12-03T16:29:21.708Z,5.97
2022-12-03T16:31:49.761Z,6.42
2022-12-03T16:34:17.813Z,9.40
2022-12-03T16:36:45.971Z,10.20
2022-12-03T16:39:14.038Z,8.91
2022-12-03T16:41:42.127Z,7.79
2022-12-03T16:44:20.254Z,7.02
2022-12-03T16:46:48.450Z,6.43
2022-12-03T16:49:16.927Z,5.99
2022-12-03T16:51:44.993Z,6.41
2022-12-03T16:54:13.035Z,9.39
2022-12-03T16:56:41.035Z,10.28
2022-12-03T16:59:09.070Z,8.99
2022-12-03T17:01:37.154Z,7.83
2022-12-03T17:04:05.215Z,7.03
2022-12-03T17:06:33.238Z,6.45
2022-12-03T17:09:01.697Z,6.00
2022-12-03T17:11:29.814Z,5.61
2022-12-03T17:13:57.851Z,6.19
2022-12-03T17:16:25.984Z,9.22
2022-12-03T17:18:54.058Z,9.92
2022-12-03T17:21:22.233Z,8.61
2022-12-03T17:23:51.225Z,7.49
2022-12-03T17:26:19.928Z,6.70
2022-12-03T17:28:48.026Z,6.14
2022-12-03T17:31:16.192Z,5.71
2022-12-03T17:33:44.244Z,5.35
2022-12-03T17:36:12.298Z,5.88
2022-12-03T17:38:40.681Z,8.83
2022-12-03T17:41:08.777Z,9.95
2022-12-03T17:43:36.868Z,8.70
2022-12-03T17:46:06.823Z,7.50
2022-12-03T17:48:35.537Z,6.68
2022-12-03T17:51:03.696Z,6.12
2022-12-03T17:53:31.715Z,6.47
2022-12-03T17:55:59.754Z,9.29
2022-12-03T17:58:28.668Z,10.33
2022-12-03T18:01:02.069Z,9.05
2022-12-03T18:03:31.782Z,7.80
2022-12-03T18:05:59.920Z,6.98
2022-12-03T18:08:28.094Z,6.39
2022-12-03T18:10:56.203Z,6.57
2022-12-03T18:13:24.268Z,9.34
2022-12-03T18:15:52.320Z,10.53
2022-12-03T18:18:20.392Z,9.30
2022-12-03T18:20:48.472Z,8.04
2022-12-03T18:23:16.526Z,7.13
2022-12-03T18:25:44.612Z,6.47
2022-12-03T18:28:12.672Z,6.90
2022-12-03T18:30:40.716Z,9.74
2022-12-03T18:33:08.767Z,10.36
2022-12-03T18:35:37.014Z,8.98
2022-12-03T18:38:05.418Z,7.76
2022-12-03T18:40:33.542Z,6.91
2022-12-03T18:43:01.557Z,6.95
2022-12-03T18:45:29.605Z,9.64
2022-12-03T18:47:57.809Z,10.53
2022-12-03T18:50:26.068Z,9.14
2022-12-03T18:52:54.104Z,7.87
2022-12-03T18:55:22.258Z,6.99
2022-12-03T18:57:50.347Z,7.03
2022-12-03T19:00:18.755Z,9.69
2022-12-03T19:03:03.953Z,10.67
2022-12-03T19:05:34.320Z,9.16
2022-12-03T19:08:03.306Z,7.92
2022-12-03T19:10:31.444Z,7.02
2022-12-03T19:12:59.521Z,7.17
2022-12-03T19:15:27.614Z,9.86
2022-12-03T19:17:55.688Z,10.52
2022-12-03T19:20:23.741Z,9.12
2022-12-03T19:22:51.732Z,7.90
2022-12-03T19:25:19.812Z,7.04
2022-12-03T19:27:50.253Z,7.16
2022-12-03T19:30:18.326Z,10.00
2022-12-03T19:32:46.653Z,10.60
2022-12-03T19:35:14.671Z,9.19
2022-12-03T19:37:42.832Z,7.96
2022-12-03T19:40:11.103Z,7.07
2022-12-03T19:42:39.266Z,7.14
2022-12-03T19:45:08.740Z,9.83
2022-12-03T19:47:37.327Z,10.74
2022-12-03T19:50:06.816Z,9.36
2022-12-03T19:52:35.405Z,8.08
2022-12-03T19:55:03.780Z,7.19
2022-12-03T19:57:31.826Z,7.32
2022-12-03T20:00:01.296Z,10.05
2022-12-03T20:02:29.564Z,10.80
2022-12-03T20:04:57.850Z,9.42
2022-12-03T20:07:25.979Z,8.19
2022-12-03T20:09:54.500Z,7.33
2022-12-03T20:12:22.805Z,6.75
2022-12-03T20:14:51.855Z,8.26
2022-12-03T20:17:20.021Z,10.71
2022-12-03T20:19:48.241Z,10.11
2022-12-03T20:22:16.285Z,8.72
2022-12-03T20:24:44.334Z,7.64
2022-12-03T20:27:12.372Z,6.91
2022-12-03T20:29:40.384Z,7.54
2022-12-03T20:32:08.719Z,10.35
2022-12-03T20:34:36.922Z,10.71
2022-12-03T20:37:04.977Z,9.30
2022-12-03T20:39:33.033Z,8.07
2022-12-03T20:42:01.082Z,7.21
2022-12-03T20:44:29.157Z,7.19
2022-12-03T20:46:57.240Z,9.83
2022-12-03T20:49:25.287Z,11.05
2022-12-03T20:51:53.358Z,9.67
2022-12-03T20:54:21.480Z,8.28
2022-12-03T20:56:50.207Z,7.31
2022-12-03T20:59:18.349Z,7.53
2022-12-03T21:01:46.565Z,10.22
2022-12-03T21:04:16.240Z,10.72
2022-12-03T21:06:45.668Z,9.27
2022-12-03T21:09:14.274Z,7.98
2022-12-03T21:11:42.689Z,7.08
2022-12-03T21:14:11.414Z,7.36
2022-12-03T21:17:06.643Z,9.91
2022-12-03T21:19:28.425Z,10.50
2022-12-03T21:21:56.607Z,9.09
2022-12-03T21:24:24.834Z,7.87
2022-12-03T21:26:52.913Z,7.03
2022-12-03T21:29:20.939Z,8.11
2022-12-03T21:31:48.980Z,10.45
2022-12-03T21:34:17.136Z,10.13
2022-12-03T21:36:45.185Z,8.71
2022-12-03T21:39:13.261Z,7.58
2022-12-03T21:41:41.395Z,7.43
2022-12-03T21:44:30.993Z,10.37
2022-12-03T21:47:11.512Z,10.94
2022-12-03T21:49:42.080Z,9.34
2022-12-03T21:52:10.730Z,8.08
2022-12-03T21:54:38.922Z,7.21
2022-12-03T21:57:07.053Z,7.62
2022-12-03T21:59:35.245Z,10.28
2022-12-03T22:02:03.937Z,10.61
2022-12-03T22:04:32.147Z,9.20
2022-12-03T22:07:00.196Z,8.00
2022-12-03T22:09:28.397Z,7.16
2022-12-03T22:11:59.367Z,7.67
2022-12-03T22:14:28.403Z,10.56
2022-12-03T22:16:56.512Z,11.00
2022-12-03T22:19:26.117Z,9.55
2022-12-03T22:21:54.204Z,8.30
2022-12-03T22:24:23.882Z,7.45
2022-12-03T22:26:53.644Z,7.56
2022-12-03T22:29:22.091Z,10.02
2022-12-03T22:31:50.409Z,10.88
2022-12-03T22:34:18.579Z,9.58
2022-12-03T22:36:46.655Z,8.31
2022-12-03T22:39:14.701Z,7.39
2022-12-03T22:41:42.776Z,7.38
2022-12-03T22:44:11.594Z,9.78
2022-12-03T22:46:39.808Z,10.99
2022-12-03T22:49:08.166Z,9.75
2022-12-03T22:51:36.324Z,8.44
2022-12-03T22:54:05.696Z,7.45
2022-12-03T22:56:33.825Z,7.49
2022-12-03T22:59:01.906Z,10.22
2022-12-03T23:01:35.606Z,11.04
2022-12-03T23:04:04.692Z,9.58
2022-12-03T23:06:35.175Z,8.31
2022-12-03T23:09:05.736Z,7.39
2022-12-03T23:11:34.597Z,7.39
2022-12-03T23:14:03.354Z,10.10
2022-12-03T23:16:33.350Z,11.08
2022-12-03T23:19:02.717Z,9.73
2022-12-03T23:21:34.183Z,8.45
2022-12-03T23:24:03.886Z,7.52
2022-12-03T23:26:36.042Z,7.56
2022-12-03T23:29:07.905Z,10.34
2022-12-03T23:31:36.359Z,10.96
2022-12-03T23:34:07.525Z,9.50
2022-12-03T23:36:42.770Z,8.26
2022-12-03T23:39:13.094Z,7.34
2022-12-03T23:41:44.635Z,7.35
2022-12-03T23:44:12.673Z,9.87
2022-12-03T23:46:40.848Z,10.78
2022-12-03T23:49:14.944Z,9.51
2022-12-03T23:51:43.038Z,8.21
2022-12-03T23:54:12.263Z,7.33
2022-12-03T23:56:42.523Z,6.85
2022-12-03T23:59:10.636Z,8.73
